Time;durP1;ratioP1;P1;durP2;ratioP2;P2;SDS_P1;SDS_P2;PMS_P1;PMS_P2;Temp;Humidity;BMP_temperature;BMP_pressure;BME280_temperature;BME280_humidity;BME280_pressure;Samples;Min_cycle;Max_cycle;Signal;HPM_P1;HPM_P2
2023/12/27 00:00:04;;;;;;;62.03;48.97;;;11.70;99.90;;;;;;4955062;29;20089;-52
2023/12/27 00:02:31;;;;;;;48.95;35.33;;;11.70;99.90;;;;;;4954723;29;20039;-53
2023/12/27 00:04:57;;;;;;;42.35;28.70;;;11.60;99.90;;;;;;4954741;29;20114;-52
2023/12/27 00:07:22;;;;;;;39.42;27.40;;;11.60;99.90;;;;;;4889319;29;20135;-56
2023/12/27 00:09:48;;;;;;;41.45;27.67;;;11.70;99.90;;;;;;4920638;29;20122;-52
2023/12/27 00:12:14;;;;;;;35.42;22.73;;;11.60;99.90;;;;;;4954596;29;20063;-56
2023/12/27 00:14:39;;;;;;;34.90;21.27;;;11.50;99.90;;;;;;4954349;29;20031;-53
2023/12/27 00:17:05;;;;;;;33.03;21.67;;;11.60;99.90;;;;;;4920431;29;20039;-52
2023/12/27 00:19:32;;;;;;;30.27;20.00;;;11.50;99.90;;;;;;4954514;29;20148;-53
2023/12/27 00:21:58;;;;;;;26.88;16.50;;;11.50;99.90;;;;;;4954537;29;20115;-52
2023/12/27 00:24:24;;;;;;;24.75;16.05;;;11.50;99.90;;;;;;4954713;29;20439;-56
2023/12/27 00:26:49;;;;;;;28.60;17.10;;;11.40;99.90;;;;;;4953892;29;20055;-56
2023/12/27 00:29:15;;;;;;;24.10;16.23;;;11.40;99.90;;;;;;4954883;29;20027;-56
2023/12/27 00:31:41;;;;;;;25.50;16.02;;;11.40;99.90;;;;;;4954251;29;20046;-52
2023/12/27 00:34:06;;;;;;;29.83;16.77;;;11.40;99.90;;;;;;4954346;29;20042;-54
2023/12/27 00:36:32;;;;;;;26.40;15.68;;;11.40;99.90;;;;;;4920187;29;20054;-53
2023/12/27 00:38:59;;;;;;;24.23;15.48;;;11.30;99.90;;;;;;4954325;29;20415;-56
2023/12/27 00:41:24;;;;;;;24.25;15.20;;;11.30;99.90;;;;;;4953571;29;20039;-54
2023/12/27 00:43:50;;;;;;;25.23;14.70;;;11.20;99.90;;;;;;4923108;29;20040;-53
2023/12/27 00:46:16;;;;;;;20.20;13.27;;;;;;;;;;4935017;29;20034;-56
2023/12/27 00:48:42;;;;;;;22.00;13.80;;;11.10;99.90;;;;;;4917055;29;20123;-54
2023/12/27 00:51:19;;;;;;;23.27;13.85;;;11.10;99.90;;;;;;4934771;29;20126;-55
2023/12/27 00:53:45;;;;;;;19.50;13.45;;;11.20;99.90;;;;;;4934899;29;20539;-56
2023/12/27 00:56:10;;;;;;;23.38;14.07;;;11.20;99.90;;;;;;4916744;29;20127;-52
2023/12/27 00:58:36;;;;;;;24.10;13.75;;;11.20;99.90;;;;;;4934851;29;20031;-56
2023/12/27 01:01:02;;;;;;;21.50;13.00;;;11.30;99.90;;;;;;4885438;29;20055;-56
2023/12/27 01:03:27;;;;;;;20.08;13.20;;;11.30;99.90;;;;;;4934814;29;20087;-52
2023/12/27 01:05:54;;;;;;;23.52;13.00;;;11.20;99.90;;;;;;4934626;29;20056;-52
2023/12/27 01:08:20;;;;;;;19.42;11.40;;;11.30;99.90;;;;;;4934525;29;20047;-54
2023/12/27 01:10:46;;;;;;;19.10;11.75;;;11.20;99.90;;;;;;4934682;29;20038;-54
2023/12/27 01:13:12;;;;;;;15.05;10.45;;;11.30;99.90;;;;;;4934624;29;20028;-56
2023/12/27 01:15:38;;;;;;;16.38;9.70;;;11.30;99.90;;;;;;4934685;29;20032;-52
2023/12/27 01:18:03;;;;;;;17.60;9.77;;;11.20;99.90;;;;;;4934714;29;20027;-55
2023/12/27 01:20:29;;;;;;;18.23;9.65;;;11.20;99.90;;;;;;4901148;29;20044;-54
2023/12/27 01:22:55;;;;;;;15.32;9.45;;;11.20;99.90;;;;;;4934858;29;20024;-53
2023/12/27 01:25:20;;;;;;;16.45;9.02;;;11.20;99.90;;;;;;4934634;29;20023;-54
2023/12/27 01:27:46;;;;;;;19.65;10.30;;;11.20;99.90;;;;;;4916342;29;20051;-54
2023/12/27 01:30:13;;;;;;;14.35;9.77;;;11.30;99.90;;;;;;4934642;29;20063;-52
2023/12/27 01:32:39;;;;;;;15.55;9.65;;;11.30;99.90;;;;;;4935482;29;20046;-54
2023/12/27 01:35:05;;;;;;;14.10;9.70;;;11.30;99.90;;;;;;4936739;29;20130;-56
2023/12/27 01:37:32;;;;;;;16.25;8.93;;;11.30;99.90;;;;;;4936605;29;20563;-55
2023/12/27 01:39:57;;;;;;;14.57;9.73;;;11.20;99.90;;;;;;4934982;29;20027;-53
2023/12/27 01:42:23;;;;;;;20.38;10.85;;;11.10;99.90;;;;;;4934491;29;20716;-56
2023/12/27 01:44:49;;;;;;;21.27;12.60;;;11.00;99.90;;;;;;4934341;29;20612;-54
2023/12/27 01:47:15;;;;;;;15.32;10.25;;;11.10;99.90;;;;;;4934467;29;20039;-55
2023/12/27 01:49:41;;;;;;;20.25;11.40;;;11.10;99.90;;;;;;4934212;29;20126;-53
2023/12/27 01:52:09;;;;;;;17.13;9.55;;;11.00;99.90;;;;;;4934296;29;20144;-57
2023/12/27 01:54:36;;;;;;;15.80;9.48;;;11.00;99.90;;;;;;4934785;29;20062;-53
2023/12/27 01:57:01;;;;;;;13.70;9.32;;;11.00;99.90;;;;;;4916238;29;20050;-54
2023/12/27 01:59:28;;;;;;;17.88;10.52;;;11.00;99.90;;;;;;4934669;29;20110;-56
2023/12/27 02:01:53;;;;;;;14.48;9.00;;;11.00;99.90;;;;;;4934184;29;20046;-55
2023/12/27 02:04:19;;;;;;;13.45;8.23;;;11.00;99.90;;;;;;4950210;29;20031;-53
2023/12/27 02:06:45;;;;;;;13.82;8.48;;;11.00;99.90;;;;;;4953373;29;20067;-55
2023/12/27 02:09:11;;;;;;;17.58;9.23;;;11.00;99.90;;;;;;4953337;29;20121;-56
2023/12/27 02:11:37;;;;;;;15.80;9.18;;;11.00;99.90;;;;;;4953645;29;20043;-55
2023/12/27 02:14:06;;;;;;;15.45;9.32;;;10.90;99.90;;;;;;4953498;29;20487;-53
2023/12/27 02:16:32;;;;;;;14.20;7.55;;;10.90;99.90;;;;;;4956328;28;20031;-53
2023/12/27 02:19:01;;;;;;;15.85;8.85;;;10.90;99.90;;;;;;4956927;29;20093;-54
2023/12/27 02:21:28;;;;;;;14.27;8.35;;;10.80;99.90;;;;;;4956818;29;20035;-54
2023/12/27 02:23:58;;;;;;;12.07;8.23;;;10.80;99.90;;;;;;4956810;29;20031;-55
2023/12/27 02:26:23;;;;;;;13.77;8.23;;;10.80;99.90;;;;;;4956565;29;20562;-52
2023/12/27 02:28:49;;;;;;;13.82;8.13;;;10.90;99.90;;;;;;4956745;29;20127;-52
2023/12/27 02:31:15;;;;;;;20.15;10.10;;;10.90;99.90;;;;;;4939258;29;20108;-54
2023/12/27 02:33:46;;;;;;;15.98;8.77;;;10.90;99.90;;;;;;4922658;29;20066;-55
2023/12/27 02:36:12;;;;;;;12.93;7.90;;;11.00;99.90;;;;;;4956402;29;20078;-56
2023/12/27 02:38:37;;;;;;;11.95;8.20;;;11.00;99.90;;;;;;4956598;29;20059;-53
2023/12/27 02:41:03;;;;;;;13.30;8.30;;;11.00;99.90;;;;;;4956425;29;20042;-53
2023/12/27 02:43:29;;;;;;;13.85;8.43;;;11.00;99.90;;;;;;4956482;29;20055;-55
2023/12/27 02:45:55;;;;;;;15.57;7.95;;;11.00;99.90;;;;;;4956894;29;20434;-54
2023/12/27 02:48:20;;;;;;;16.08;7.85;;;11.00;99.90;;;;;;4956289;29;20023;-56
2023/12/27 02:50:46;;;;;;;16.00;8.55;;;11.10;99.90;;;;;;4922289;29;20537;-54
2023/12/27 02:53:12;;;;;;;14.48;8.98;;;11.10;99.90;;;;;;4956648;29;20046;-52
2023/12/27 02:55:38;;;;;;;15.88;8.48;;;11.10;99.90;;;;;;4956385;29;20038;-53
2023/12/27 02:58:04;;;;;;;13.18;8.77;;;11.10;99.90;;;;;;4956185;29;20058;-58
2023/12/27 03:00:35;;;;;;;15.50;8.30;;;11.10;99.90;;;;;;4956429;29;20479;-53
2023/12/27 03:03:02;;;;;;;14.90;7.13;;;11.10;99.90;;;;;;4955927;29;20027;-55
2023/12/27 03:05:28;;;;;;;16.77;8.55;;;11.10;99.90;;;;;;4922122;29;20050;-56
2023/12/27 03:07:54;;;;;;;13.57;7.68;;;11.00;99.90;;;;;;4955967;29;20035;-56
2023/12/27 03:10:19;;;;;;;12.73;7.88;;;11.00;99.90;;;;;;4956109;29;20490;-54
2023/12/27 03:12:45;;;;;;;11.55;7.70;;;10.90;99.90;;;;;;4955727;29;20050;-53
2023/12/27 03:15:11;;;;;;;17.08;8.18;;;10.90;99.90;;;;;;4955679;29;20035;-54
2023/12/27 03:17:36;;;;;;;15.60;7.60;;;10.80;99.90;;;;;;4956197;29;20039;-53
2023/12/27 03:20:02;;;;;;;11.35;8.45;;;10.80;99.90;;;;;;4956005;29;20024;-55
2023/12/27 03:22:28;;;;;;;13.27;8.25;;;10.80;99.90;;;;;;4955557;29;20038;-52
2023/12/27 03:24:54;;;;;;;19.65;9.35;;;;;;;;;;4956000;29;20031;-56
2023/12/27 03:27:20;;;;;;;16.05;10.18;;;;;;;;;;4920212;29;20521;-54
2023/12/27 03:29:46;;;;;;;17.90;10.93;;;;;;;;;;4955591;29;20054;-56
2023/12/27 03:32:12;;;;;;;17.80;11.95;;;10.10;99.90;;;;;;4955431;29;20046;-53
2023/12/27 03:34:38;;;;;;;;;;;;;;;;;;4956023;29;20043;-55
2023/12/27 03:37:04;;;;;;;;;;;9.00;99.90;;;;;;4956268;29;20468;-55
2023/12/27 03:39:29;;;;;;;;;;;9.00;99.90;;;;;;4955857;29;19963;-56
2023/12/27 03:41:55;;;;;;;;;;;9.00;99.90;;;;;;4955809;29;20277;-54
2023/12/27 03:44:21;;;;;;;;;;;8.90;99.90;;;;;;4955756;29;20320;-53
2023/12/27 03:46:46;;;;;;;;;;;8.80;99.90;;;;;;4955671;29;20273;-54
2023/12/27 03:49:12;;;;;;;17.60;10.60;;;8.70;99.90;;;;;;4905363;29;20841;-53
2023/12/27 03:51:38;;;;;;;17.17;10.43;;;8.70;99.90;;;;;;4955046;29;20047;-54
2023/12/27 03:54:04;;;;;;;16.10;10.25;;;8.70;99.90;;;;;;4921121;29;20395;-52
2023/12/27 03:56:29;;;;;;;15.25;9.68;;;8.80;99.90;;;;;;4955136;29;20090;-54
2023/12/27 03:58:55;;;;;;;22.83;15.80;;;8.90;99.90;;;;;;4954957;29;20416;-52
2023/12/27 04:01:21;;;;;;;18.45;12.75;;;8.80;99.90;;;;;;4954901;29;20031;-54
2023/12/27 04:03:48;;;;;;;15.90;10.55;;;8.80;99.90;;;;;;4954908;29;20035;-56
2023/12/27 04:06:18;;;;;;;15.43;9.85;;;8.90;99.90;;;;;;4954975;29;20059;-53
2023/12/27 04:08:44;;;;;;;15.48;9.60;;;9.00;99.90;;;;;;4920972;29;20066;-52
2023/12/27 04:11:10;;;;;;;15.77;9.60;;;8.90;99.90;;;;;;4954665;29;20051;-54
2023/12/27 04:13:36;;;;;;;12.23;8.60;;;8.70;99.90;;;;;;4954668;29;20046;-54
2023/12/27 04:16:01;;;;;;;15.80;8.77;;;8.70;99.90;;;;;;4954932;29;20055;-56
2023/12/27 04:18:27;;;;;;;11.68;8.07;;;8.70;99.90;;;;;;4954839;29;20110;-53
2023/12/27 04:20:53;;;;;;;12.07;8.10;;;8.60;99.90;;;;;;4953907;29;20039;-53
2023/12/27 04:23:18;;;;;;;15.82;8.30;;;8.50;99.90;;;;;;4954387;29;20062;-55
2023/12/27 04:25:44;;;;;;;14.73;8.50;;;8.60;99.90;;;;;;4954813;29;20110;-52
2023/12/27 04:28:10;;;;;;;13.20;8.40;;;8.70;99.90;;;;;;4954271;29;20495;-52
2023/12/27 04:30:36;;;;;;;16.83;8.63;;;8.60;99.90;;;;;;4954424;29;20035;-53
2023/12/27 04:33:02;;;;;;;16.52;10.88;;;8.80;99.90;;;;;;4954797;29;20040;-53
2023/12/27 04:35:27;;;;;;;15.20;10.10;;;9.20;99.90;;;;;;4954659;29;20050;-53
2023/12/27 04:37:53;;;;;;;14.25;9.65;;;9.40;99.90;;;;;;4894636;29;20044;-52
2023/12/27 04:40:19;;;;;;;14.35;8.90;;;9.40;99.90;;;;;;4895066;29;20040;-52
2023/12/27 04:42:44;;;;;;;12.43;8.75;;;9.30;99.90;;;;;;4894857;29;20119;-53
2023/12/27 04:45:10;;;;;;;10.90;7.10;;;9.20;99.90;;;;;;4894836;29;20037;-55
2023/12/27 04:47:36;;;;;;;11.68;8.32;;;9.20;99.90;;;;;;4894899;29;20076;-55
2023/12/27 04:50:02;;;;;;;14.57;8.50;;;9.50;99.90;;;;;;4894775;29;20131;-51
2023/12/27 04:52:28;;;;;;;13.68;8.18;;;9.60;99.90;;;;;;4894612;29;20093;-55
2023/12/27 04:54:54;;;;;;;12.95;8.15;;;9.40;99.90;;;;;;4894809;29;20036;-52
2023/12/27 04:57:20;;;;;;;14.32;9.52;;;9.60;99.90;;;;;;4879098;29;20453;-55
2023/12/27 04:59:46;;;;;;;15.85;9.75;;;9.70;99.90;;;;;;4894653;29;20096;-52
2023/12/27 05:02:11;;;;;;;20.63;13.75;;;9.60;99.90;;;;;;4878944;29;20059;-51
2023/12/27 05:04:37;;;;;;;20.38;13.77;;;9.70;99.90;;;;;;4894689;29;20044;-53
2023/12/27 05:07:03;;;;;;;16.08;10.13;;;9.70;99.90;;;;;;4894657;29;20041;-52
2023/12/27 05:09:28;;;;;;;15.15;10.90;;;9.50;99.90;;;;;;4868114;29;20051;-55
2023/12/27 05:11:54;;;;;;;15.10;9.93;;;9.30;99.90;;;;;;4953669;29;20035;-55
2023/12/27 05:14:20;;;;;;;16.67;9.35;;;9.10;99.90;;;;;;4919923;29;20075;-56
2023/12/27 05:16:46;;;;;;;16.52;10.48;;;9.00;99.90;;;;;;4935435;29;20067;-55
2023/12/27 05:19:12;;;;;;;15.30;9.82;;;9.10;99.90;;;;;;4954143;29;20086;-52
2023/12/27 05:21:38;;;;;;;26.38;15.30;;;9.20;99.90;;;;;;4953663;29;20498;-53
2023/12/27 05:24:04;;;;;;;62.83;28.50;;;9.40;99.90;;;;;;4953814;29;20043;-56
2023/12/27 05:26:30;;;;;;;109.03;47.05;;;9.50;99.90;;;;;;4919607;29;20047;-55
2023/12/27 05:28:56;;;;;;;79.68;35.25;;;9.70;99.90;;;;;;4951958;29;20390;-54
2023/12/27 05:31:21;;;;;;;66.65;31.75;;;10.00;99.90;;;;;;4952820;29;20027;-52
2023/12/27 05:33:47;;;;;;;76.68;32.35;;;10.10;99.90;;;;;;4953695;29;20063;-52
2023/12/27 05:36:13;;;;;;;138.38;52.28;;;10.00;99.90;;;;;;4953768;29;20039;-54
2023/12/27 05:38:39;;;;;;;134.50;50.92;;;9.90;99.90;;;;;;4951185;29;20039;-55
2023/12/27 05:41:05;;;;;;;70.82;27.65;;;10.00;99.90;;;;;;4953171;29;20072;-54
2023/12/27 05:43:31;;;;;;;32.85;15.52;;;10.20;99.90;;;;;;4953179;29;20027;-54
2023/12/27 05:45:57;;;;;;;28.77;15.07;;;10.30;99.90;;;;;;4953140;29;20077;-52
2023/12/27 05:48:23;;;;;;;34.20;16.08;;;10.50;99.90;;;;;;4936056;29;20043;-55
2023/12/27 05:50:49;;;;;;;35.15;16.98;;;10.60;99.90;;;;;;4954909;28;20043;-56
2023/12/27 05:53:15;;;;;;;35.92;18.08;;;;;;;;;;4956980;29;20483;-55
2023/12/27 05:55:41;;;;;;;45.45;21.75;;;;;;;;;;4956757;29;20027;-52
2023/12/27 05:58:07;;;;;;;88.55;38.05;;;;;;;;;;4956706;29;20545;-56
2023/12/27 06:00:34;;;;;;;58.67;28.10;;;;;;;;;;4956347;29;20027;-53
2023/12/27 06:03:00;;;;;;;45.78;22.55;;;;;;;;;;4956472;29;20031;-55
2023/12/27 06:05:26;;;;;;;36.60;20.67;;;;;;;;;;4922556;29;20418;-54
2023/12/27 06:07:52;;;;;;;28.77;17.52;;;;;;;;;;4956812;29;20490;-54
2023/12/27 06:10:18;;;;;;;32.47;16.58;;;11.10;99.90;;;;;;4956272;29;20063;-52
2023/12/27 06:12:44;;;;;;;29.10;18.00;;;11.00;99.90;;;;;;4956312;29;20117;-51
2023/12/27 06:15:10;;;;;;;27.90;17.05;;;11.00;99.90;;;;;;4956582;29;20042;-54
2023/12/27 06:17:36;;;;;;;45.53;27.63;;;11.00;99.90;;;;;;4957176;29;20062;-54
2023/12/27 06:20:04;;;;;;;69.13;48.95;;;11.00;99.90;;;;;;4957013;29;20442;-54
2023/12/27 06:22:29;;;;;;;47.38;40.47;;;10.80;99.90;;;;;;4954616;29;20047;-51
2023/12/27 06:24:55;;;;;;;46.70;33.97;;;10.60;99.90;;;;;;4956907;29;20624;-53
2023/12/27 06:27:21;;;;;;;53.80;37.58;;;10.80;99.90;;;;;;4956607;29;20734;-54
2023/12/27 06:29:46;;;;;;;58.95;43.25;;;10.80;99.90;;;;;;4956523;29;20042;-54
2023/12/27 06:32:12;;;;;;;220.90;168.85;;;10.60;99.90;;;;;;4956124;29;20042;-52
2023/12/27 06:34:38;;;;;;;159.05;111.80;;;10.70;99.90;;;;;;4956672;29;20078;-55
2023/12/27 06:37:04;;;;;;;189.55;142.98;;;10.80;99.90;;;;;;4956465;29;20023;-55
2023/12/27 06:39:30;;;;;;;190.05;140.23;;;10.90;99.90;;;;;;4955832;29;20501;-54
2023/12/27 06:41:55;;;;;;;104.43;72.57;;;11.00;99.90;;;;;;4956543;29;20039;-54
2023/12/27 06:44:21;;;;;;;90.22;53.47;;;11.20;99.90;;;;;;4922483;29;20043;-55
2023/12/27 06:46:47;;;;;;;103.25;74.10;;;11.20;99.90;;;;;;4956087;29;20028;-55
2023/12/27 06:49:13;;;;;;;94.03;64.80;;;11.20;99.90;;;;;;4956263;29;20024;-52
2023/12/27 06:51:38;;;;;;;75.78;49.47;;;11.20;99.90;;;;;;4956228;29;20086;-55
2023/12/27 06:54:04;;;;;;;66.88;45.83;;;11.30;99.90;;;;;;4956340;29;20027;-52
2023/12/27 06:56:30;;;;;;;59.22;31.45;;;11.30;99.90;;;;;;4956307;29;20019;-52
2023/12/27 06:58:55;;;;;;;65.30;28.05;;;11.30;99.90;;;;;;4956357;29;20042;-54
2023/12/27 07:01:21;;;;;;;36.88;23.13;;;11.30;99.90;;;;;;4956155;28;20023;-56
2023/12/27 07:03:47;;;;;;;40.58;20.88;;;11.40;99.90;;;;;;4956079;29;20023;-54
2023/12/27 07:06:13;;;;;;;30.10;18.85;;;11.50;99.90;;;;;;4955867;29;20514;-54
2023/12/27 07:08:39;;;;;;;28.52;20.42;;;11.10;99.90;;;;;;4956006;29;20557;-52
2023/12/27 07:11:05;;;;;;;24.83;16.58;;;11.40;99.90;;;;;;4955697;29;20114;-53
2023/12/27 07:13:30;;;;;;;29.65;19.25;;;11.30;99.90;;;;;;4955872;29;20034;-52
2023/12/27 07:15:57;;;;;;;26.45;14.70;;;11.40;99.90;;;;;;4919692;29;20503;-53
2023/12/27 07:18:23;;;;;;;25.63;16.17;;;11.30;99.90;;;;;;4955192;29;20031;-54
2023/12/27 07:20:49;;;;;;;26.65;14.85;;;11.30;99.90;;;;;;4955206;29;20031;-53
2023/12/27 07:23:15;;;;;;;24.20;14.50;;;11.40;99.90;;;;;;4952809;29;20035;-51
2023/12/27 07:25:40;;;;;;;21.35;13.48;;;11.40;99.90;;;;;;4954990;29;20020;-52
2023/12/27 07:28:06;;;;;;;23.90;13.65;;;11.40;99.90;;;;;;4954809;29;20957;-52
2023/12/27 07:30:32;;;;;;;28.15;13.52;;;11.30;99.90;;;;;;4952819;29;20035;-53
2023/12/27 07:32:57;;;;;;;19.20;11.00;;;11.30;99.90;;;;;;4955069;29;20116;-56
2023/12/27 07:35:24;;;;;;;20.85;11.27;;;11.30;99.90;;;;;;4955105;29;20023;-54
2023/12/27 07:37:50;;;;;;;16.77;10.27;;;11.40;99.90;;;;;;4917807;29;20546;-52
2023/12/27 07:40:16;;;;;;;19.27;11.35;;;11.40;99.90;;;;;;4941341;29;20056;-53
2023/12/27 07:42:42;;;;;;;36.80;32.55;;;11.50;99.90;;;;;;4936929;29;20085;-53
2023/12/27 07:45:08;;;;;;;31.60;10.43;;;11.50;99.90;;;;;;4955216;29;20090;-54
2023/12/27 07:47:34;;;;;;;20.15;10.88;;;11.50;99.90;;;;;;4921186;29;20058;-56
2023/12/27 07:49:59;;;;;;;17.67;10.45;;;11.50;99.90;;;;;;4954613;29;20023;-53
2023/12/27 07:52:25;;;;;;;14.80;9.80;;;11.50;99.90;;;;;;4920947;29;20047;-54
2023/12/27 07:54:52;;;;;;;20.25;11.68;;;11.50;99.90;;;;;;4955206;29;20159;-53
2023/12/27 07:57:17;;;;;;;18.52;12.52;;;11.50;99.90;;;;;;4952926;29;20051;-51
2023/12/27 07:59:43;;;;;;;18.48;12.02;;;11.50;99.90;;;;;;4954646;29;20042;-54
2023/12/27 08:02:09;;;;;;;16.75;12.48;;;11.50;99.90;;;;;;4921076;29;20035;-55
2023/12/27 08:04:35;;;;;;;18.73;12.85;;;11.50;99.90;;;;;;4953420;29;20395;-53
2023/12/27 08:07:00;;;;;;;20.90;13.30;;;11.50;99.90;;;;;;4895916;29;20050;-60
2023/12/27 08:09:26;;;;;;;18.90;14.10;;;11.40;99.90;;;;;;4937029;29;20064;-53
2023/12/27 08:11:53;;;;;;;19.58;13.13;;;11.40;99.90;;;;;;4934876;29;20090;-54
2023/12/27 08:14:18;;;;;;;25.23;13.95;;;11.50;99.90;;;;;;4934751;29;20039;-55
2023/12/27 08:16:44;;;;;;;17.30;13.00;;;11.50;99.90;;;;;;4954014;29;20119;-52
2023/12/27 08:19:10;;;;;;;19.70;12.85;;;11.60;99.90;;;;;;4953940;29;20035;-52
2023/12/27 08:21:35;;;;;;;19.67;14.10;;;11.60;99.90;;;;;;4954888;29;20079;-51
2023/12/27 08:24:01;;;;;;;24.20;14.50;;;11.60;99.90;;;;;;4953509;29;20035;-52
2023/12/27 08:26:27;;;;;;;25.17;14.25;;;11.60;99.90;;;;;;4953662;29;20054;-51
2023/12/27 08:28:52;;;;;;;25.08;15.23;;;11.70;99.90;;;;;;4954121;29;20035;-52
2023/12/27 08:31:18;;;;;;;24.80;17.35;;;11.80;99.90;;;;;;4932071;29;20050;-52
2023/12/27 08:33:48;;;;;;;34.35;21.70;;;11.80;99.90;;;;;;4948771;29;20378;-52
2023/12/27 08:36:14;;;;;;;33.50;20.05;;;11.70;99.90;;;;;;4954799;29;20058;-52
2023/12/27 08:38:41;;;;;;;29.92;19.40;;;11.70;99.90;;;;;;4953924;29;20490;-52
2023/12/27 08:41:06;;;;;;;24.85;15.95;;;11.70;99.90;;;;;;4953465;29;20090;-52
2023/12/27 08:43:35;;;;;;;20.83;14.10;;;11.60;99.90;;;;;;4953605;29;20067;-51
2023/12/27 08:46:01;;;;;;;26.95;13.65;;;11.60;99.90;;;;;;4954017;29;20113;-52
2023/12/27 08:48:27;;;;;;;29.58;14.57;;;11.50;99.90;;;;;;4953782;29;20483;-53
2023/12/27 08:50:52;;;;;;;36.70;15.02;;;11.60;99.90;;;;;;4953985;29;20033;-52
2023/12/27 08:53:18;;;;;;;29.17;15.63;;;11.60;99.90;;;;;;4954029;29;20043;-51
2023/12/27 08:55:44;;;;;;;29.27;15.80;;;11.70;99.90;;;;;;4954490;29;20459;-52
2023/12/27 08:58:12;;;;;;;25.30;11.70;;;;;;;;;;4935115;29;20391;-52
2023/12/27 09:00:38;;;;;;;18.63;11.07;;;11.90;99.90;;;;;;4954179;29;20035;-51
2023/12/27 09:03:03;;;;;;;16.88;11.50;;;11.90;99.90;;;;;;4953727;29;20031;-52
2023/12/27 09:05:29;;;;;;;18.83;12.40;;;11.80;99.90;;;;;;4954103;29;20550;-52
2023/12/27 09:07:55;;;;;;;38.33;20.00;;;11.80;99.90;;;;;;4954183;29;20031;-51
2023/12/27 09:10:21;;;;;;;26.83;15.52;;;11.90;99.90;;;;;;4936725;29;20059;-52
2023/12/27 09:12:46;;;;;;;27.88;14.82;;;12.00;99.90;;;;;;4953635;29;20027;-51
2023/12/27 09:15:14;;;;;;;21.58;12.85;;;12.10;99.90;;;;;;4935657;29;20035;-51
2023/12/27 09:17:39;;;;;;;15.65;11.88;;;12.20;99.90;;;;;;4937119;29;20046;-52
2023/12/27 09:20:07;;;;;;;27.15;16.80;;;12.20;99.90;;;;;;4953700;29;20031;-51
2023/12/27 09:22:34;;;;;;;14.98;10.63;;;12.20;99.90;;;;;;4953715;29;20695;-51
2023/12/27 09:24:59;;;;;;;27.25;14.27;;;12.30;99.90;;;;;;4954343;28;20471;-52
2023/12/27 09:27:26;;;;;;;20.42;13.77;;;12.30;99.90;;;;;;4939427;29;20110;-52
2023/12/27 09:29:52;;;;;;;22.25;14.50;;;12.30;99.90;;;;;;4923696;29;20046;-51
2023/12/27 09:32:18;;;;;;;24.58;13.73;;;12.20;99.90;;;;;;4923371;29;20103;-51
2023/12/27 09:34:44;;;;;;;19.70;14.00;;;12.30;99.90;;;;;;4957707;29;20427;-52
2023/12/27 09:37:09;;;;;;;16.98;12.68;;;12.30;99.90;;;;;;4957853;29;20087;-52
2023/12/27 09:39:35;;;;;;;16.90;12.00;;;12.10;99.90;;;;;;4957812;29;20102;-52
2023/12/27 09:42:02;;;;;;;26.52;12.65;;;12.00;99.90;;;;;;4923494;29;20043;-52
2023/12/27 09:44:28;;;;;;;23.17;12.85;;;12.10;99.90;;;;;;4956485;29;20031;-51
2023/12/27 09:46:57;;;;;;;17.38;11.40;;;12.30;99.90;;;;;;4957255;29;20031;-52
2023/12/27 09:49:24;;;;;;;25.65;17.02;;;12.40;99.90;;;;;;4957292;29;20027;-52
2023/12/27 09:51:51;;;;;;;28.15;13.93;;;12.50;99.90;;;;;;4956280;29;20031;-54
2023/12/27 09:54:17;;;;;;;26.58;16.58;;;12.50;99.90;;;;;;4955538;29;20430;-53
2023/12/27 09:56:44;;;;;;;22.13;15.48;;;12.50;99.90;;;;;;4962374;28;20026;-52
2023/12/27 09:59:17;;;;;;;22.33;14.18;;;12.20;99.90;;;;;;4954499;28;20062;-51
2023/12/27 10:01:46;;;;;;;26.52;14.48;;;12.30;99.90;;;;;;4904880;29;20468;-51
2023/12/27 10:04:35;;;;;;;22.35;12.95;;;12.20;99.90;;;;;;4956771;29;20023;-51
2023/12/27 10:07:04;;;;;;;23.20;14.18;;;12.20;99.90;;;;;;4954100;29;20077;-50
2023/12/27 10:09:33;;;;;;;26.13;15.35;;;12.20;99.90;;;;;;4922081;29;20039;-52
2023/12/27 10:11:59;;;;;;;30.83;18.88;;;12.40;99.90;;;;;;4955767;29;20039;-52
2023/12/27 10:14:27;;;;;;;34.33;18.10;;;12.60;99.90;;;;;;4955220;28;20024;-52
2023/12/27 10:16:53;;;;;;;51.63;29.65;;;12.80;99.90;;;;;;4955765;29;20036;-52
2023/12/27 10:19:44;;;;;;;43.53;26.63;;;12.90;99.90;;;;;;4955453;29;20493;-52
2023/12/27 10:22:14;;;;;;;37.10;24.47;;;12.90;99.90;;;;;;4955112;29;20039;-52
2023/12/27 10:24:40;;;;;;;87.03;51.63;;;12.90;99.90;;;;;;4918852;29;20098;-52
2023/12/27 10:27:08;;;;;;;127.03;76.55;;;13.10;99.90;;;;;;4874792;29;20414;-49
2023/12/27 10:29:35;;;;;;;96.45;56.28;;;13.20;99.90;;;;;;4953175;29;20028;-51
2023/12/27 10:32:06;;;;;;;53.83;32.33;;;13.20;99.90;;;;;;4934029;29;20134;-51
2023/12/27 10:34:33;;;;;;;45.70;29.38;;;;;;;;;;4934166;29;20046;-50
2023/12/27 10:37:01;;;;;;;46.83;28.10;;;13.10;99.90;;;;;;4931007;29;20044;-51
2023/12/27 10:39:27;;;;;;;44.00;29.45;;;13.20;99.90;;;;;;4934166;29;20593;-51
2023/12/27 10:41:53;;;;;;;63.45;36.60;;;;;;;;;;4902200;29;20122;-51
2023/12/27 10:44:19;;;;;;;56.53;38.97;;;;;;;;;;4931593;29;20040;-51
2023/12/27 10:46:46;;;;;;;65.60;44.28;;;;;;;;;;4933985;29;20035;-51
2023/12/27 10:49:13;;;;;;;52.35;38.53;;;;;;;;;;4934058;29;20028;-52
2023/12/27 10:51:42;;;;;;;49.67;35.35;;;;;;;;;;4932479;29;20513;-53
2023/12/27 10:54:12;;;;;;;55.95;35.97;;;13.50;99.90;;;;;;4902613;29;20039;-52
2023/12/27 10:56:39;;;;;;;66.38;43.60;;;13.60;99.90;;;;;;4933254;29;20032;-54
2023/12/27 10:59:06;;;;;;;68.45;44.72;;;13.60;99.90;;;;;;4932968;29;20071;-57
2023/12/27 11:01:43;;;;;;;78.55;49.90;;;13.80;99.90;;;;;;4933938;29;20050;-53
2023/12/27 11:04:10;;;;;;;81.82;54.35;;;13.90;99.90;;;;;;4955091;29;20047;-53
2023/12/27 11:06:39;;;;;;;81.15;52.40;;;14.00;99.90;;;;;;4955634;29;20106;-52
2023/12/27 11:09:07;;;;;;;80.10;52.10;;;13.90;99.90;;;;;;4955709;29;20106;-53
2023/12/27 11:11:39;;;;;;;80.82;52.00;;;;;;;;;;4955858;29;20027;-53
2023/12/27 11:14:08;;;;;;;83.47;54.05;;;13.80;99.90;;;;;;4921702;29;20043;-53
2023/12/27 11:16:35;;;;;;;112.65;71.00;;;;;;;;;;4955417;29;20042;-53
2023/12/27 11:19:03;;;;;;;114.07;76.43;;;;;;;;;;4955824;29;20471;-53
2023/12/27 11:21:29;;;;;;;111.00;76.95;;;;;;;;;;4955433;29;20443;-53
2023/12/27 11:23:55;;;;;;;111.65;75.15;;;14.40;99.90;;;;;;4955658;29;20034;-53
2023/12/27 11:26:21;;;;;;;111.28;76.78;;;14.20;99.90;;;;;;4955274;29;20085;-53
2023/12/27 11:28:47;;;;;;;106.78;75.60;;;14.10;99.90;;;;;;4937056;29;20035;-54
2023/12/27 11:31:13;;;;;;;110.53;76.40;;;14.10;99.90;;;;;;4955502;29;20031;-53
2023/12/27 11:33:43;;;;;;;99.47;70.18;;;14.30;99.90;;;;;;4955364;29;20403;-53
2023/12/27 11:36:09;;;;;;;99.63;69.53;;;14.40;99.90;;;;;;4955459;29;20125;-53
2023/12/27 11:38:37;;;;;;;106.68;73.60;;;14.50;99.90;;;;;;4955594;29;20027;-53
2023/12/27 11:41:03;;;;;;;106.72;76.38;;;14.60;99.90;;;;;;4955035;29;20406;-52
2023/12/27 11:43:52;;;;;;;111.00;78.63;;;;;;;;;;4955475;29;20028;-54
2023/12/27 11:46:25;;;;;;;113.03;86.53;;;;;;;;;;4955541;29;20471;-52
2023/12/27 11:48:51;;;;;;;122.45;89.10;;;;;;;;;;4954090;28;20110;-52
2023/12/27 11:51:29;;;;;;;131.18;98.95;;;15.50;99.90;;;;;;4955008;29;20031;-52
2023/12/27 11:53:55;;;;;;;148.43;104.28;;;15.50;99.90;;;;;;4954969;29;20039;-52
2023/12/27 11:56:22;;;;;;;152.05;111.82;;;;;;;;;;4936952;29;20066;-52
2023/12/27 11:58:49;;;;;;;150.65;109.07;;;;;;;;;;4954851;29;20475;-52
2023/12/27 12:01:29;;;;;;;127.40;92.35;;;15.80;99.90;;;;;;4954946;29;20139;-52
2023/12/27 12:04:10;;;;;;;98.35;70.00;;;15.70;99.90;;;;;;4954732;29;20034;-52
2023/12/27 12:06:42;;;;;;;102.95;66.63;;;15.90;99.90;;;;;;4936744;29;20039;-52
2023/12/27 12:09:09;;;;;;;85.47;58.65;;;16.10;99.90;;;;;;4954612;29;20103;-52
2023/12/27 12:11:36;;;;;;;77.50;48.70;;;16.30;99.90;;;;;;4954598;29;20043;-52
2023/12/27 12:14:04;;;;;;;76.53;51.42;;;16.10;99.90;;;;;;4920498;29;20454;-52
2023/12/27 12:16:32;;;;;;;86.45;55.00;;;;;;;;;;4954690;29;20110;-52
2023/12/27 12:19:03;;;;;;;92.88;65.45;;;;;;;;;;4954695;29;20403;-52
2023/12/27 12:21:30;;;;;;;86.23;60.47;;;;;;;;;;4954473;29;20038;-52
2023/12/27 12:23:56;;;;;;;81.68;56.15;;;;;;;;;;4954803;29;20034;-53
2023/12/27 12:26:22;;;;;;;83.45;58.90;;;17.10;99.90;;;;;;4954427;29;20051;-53
2023/12/27 12:28:55;;;;;;;89.20;60.78;;;17.10;98.00;;;;;;4954498;29;20605;-53
2023/12/27 12:31:21;;;;;;;100.15;66.80;;;17.20;97.60;;;;;;4954112;29;20090;-52
2023/12/27 12:33:47;;;;;;;88.55;60.17;;;;;;;;;;4936284;29;20043;-52
2023/12/27 12:36:13;;;;;;;89.35;59.03;;;17.20;99.90;;;;;;4954269;29;20138;-53
2023/12/27 12:38:39;;;;;;;67.80;49.83;;;17.50;97.60;;;;;;4954279;29;20075;-52